sensor_id;sensor_type;location;lat;lon;timestamp;P1;durP1;ratioP1;P2;durP2;ratioP2
60306;SDS011;46155;52.364;6.580;2022-09-13T03:02:50;24.10;;;21.63;;
60306;SDS011;46155;52.364;6.580;2022-09-13T03:05:18;24.73;;;22.33;;
60306;SDS011;46155;52.364;6.580;2022-09-13T03:07:44;26.40;;;23.60;;
60306;SDS011;46155;52.364;6.580;2022-09-13T03:10:11;24.73;;;22.47;;
60306;SDS011;46155;52.364;6.580;2022-09-13T03:24:08;26.20;;;21.63;;
60306;SDS011;46155;52.364;6.580;2022-09-13T03:32:35;25.67;;;22.93;;
60306;SDS011;46155;52.364;6.580;2022-09-13T03:35:21;27.87;;;21.70;;
60306;SDS011;46155;52.364;6.580;2022-09-13T03:38:11;26.50;;;23.60;;
60306;SDS011;46155;52.364;6.580;2022-09-13T03:43:24;27.73;;;22.93;;
60306;SDS011;46155;52.364;6.580;2022-09-13T03:45:59;28.40;;;25.37;;
60306;SDS011;46155;52.364;6.580;2022-09-13T03:48:29;27.00;;;23.77;;
60306;SDS011;46155;52.364;6.580;2022-09-13T03:50:56;26.40;;;23.73;;
60306;SDS011;46155;52.364;6.580;2022-09-13T03:53:22;30.83;;;24.97;;
60306;SDS011;46155;52.364;6.580;2022-09-13T03:55:51;27.27;;;24.47;;
60306;SDS011;46155;52.364;6.580;2022-09-13T03:58:18;28.57;;;25.00;;
60306;SDS011;46155;52.364;6.580;2022-09-13T04:00:44;32.03;;;24.73;;
60306;SDS011;46155;52.364;6.580;2022-09-13T04:03:09;28.87;;;24.03;;
60306;SDS011;46155;52.364;6.580;2022-09-13T04:05:35;26.27;;;23.50;;
60306;SDS011;46155;52.364;6.580;2022-09-13T04:08:01;27.97;;;23.90;;
60306;SDS011;46155;52.364;6.580;2022-09-13T04:10:29;27.03;;;22.67;;
60306;SDS011;46155;52.364;6.580;2022-09-13T04:12:55;28.07;;;23.90;;
60306;SDS011;46155;52.364;6.580;2022-09-13T04:15:21;26.60;;;23.70;;
60306;SDS011;46155;52.364;6.580;2022-09-13T04:17:46;30.70;;;23.27;;
60306;SDS011;46155;52.364;6.580;2022-09-13T04:20:12;28.67;;;23.73;;
60306;SDS011;46155;52.364;6.580;2022-09-13T04:22:37;27.03;;;24.10;;
60306;SDS011;46155;52.364;6.580;2022-09-13T04:25:03;27.43;;;23.20;;
60306;SDS011;46155;52.364;6.580;2022-09-13T04:27:29;37.40;;;24.20;;
60306;SDS011;46155;52.364;6.580;2022-09-13T04:29:54;28.33;;;24.07;;
60306;SDS011;46155;52.364;6.580;2022-09-13T04:32:20;29.03;;;24.33;;
60306;SDS011;46155;52.364;6.580;2022-09-13T04:34:45;28.33;;;23.03;;
60306;SDS011;46155;52.364;6.580;2022-09-13T04:37:11;29.33;;;23.33;;
60306;SDS011;46155;52.364;6.580;2022-09-13T04:39:37;28.83;;;23.13;;
60306;SDS011;46155;52.364;6.580;2022-09-13T04:42:02;28.47;;;23.43;;
60306;SDS011;46155;52.364;6.580;2022-09-13T04:44:28;30.23;;;24.63;;
60306;SDS011;46155;52.364;6.580;2022-09-13T04:46:54;30.27;;;25.10;;
60306;SDS011;46155;52.364;6.580;2022-09-13T04:49:19;25.90;;;22.70;;
60306;SDS011;46155;52.364;6.580;2022-09-13T04:51:45;29.37;;;24.73;;
60306;SDS011;46155;52.364;6.580;2022-09-13T04:54:12;26.67;;;23.87;;
60306;SDS011;46155;52.364;6.580;2022-09-13T04:56:37;28.70;;;24.13;;
60306;SDS011;46155;52.364;6.580;2022-09-13T04:59:02;27.67;;;22.83;;
60306;SDS011;46155;52.364;6.580;2022-09-13T05:01:28;30.83;;;25.03;;
60306;SDS011;46155;52.364;6.580;2022-09-13T05:03:54;32.27;;;23.87;;
60306;SDS011;46155;52.364;6.580;2022-09-13T05:06:19;26.33;;;22.63;;
60306;SDS011;46155;52.364;6.580;2022-09-13T05:08:49;29.87;;;24.40;;
60306;SDS011;46155;52.364;6.580;2022-09-13T05:11:19;26.30;;;22.70;;
60306;SDS011;46155;52.364;6.580;2022-09-13T05:13:50;31.10;;;22.83;;
60306;SDS011;46155;52.364;6.580;2022-09-13T05:16:18;34.27;;;24.40;;
60306;SDS011;46155;52.364;6.580;2022-09-13T05:18:44;28.77;;;21.93;;
60306;SDS011;46155;52.364;6.580;2022-09-13T05:21:09;21.10;;;18.57;;
60306;SDS011;46155;52.364;6.580;2022-09-13T05:23:34;29.07;;;21.37;;
60306;SDS011;46155;52.364;6.580;2022-09-13T05:26:01;25.87;;;20.10;;
60306;SDS011;46155;52.364;6.580;2022-09-13T05:28:28;32.27;;;21.93;;
60306;SDS011;46155;52.364;6.580;2022-09-13T05:30:59;27.23;;;20.13;;
60306;SDS011;46155;52.364;6.580;2022-09-13T05:33:31;28.43;;;20.30;;
60306;SDS011;46155;52.364;6.580;2022-09-13T05:36:01;30.50;;;21.03;;
60306;SDS011;46155;52.364;6.580;2022-09-13T05:38:27;28.17;;;21.67;;
60306;SDS011;46155;52.364;6.580;2022-09-13T05:40:54;27.53;;;21.50;;
60306;SDS011;46155;52.364;6.580;2022-09-13T05:43:20;30.37;;;20.97;;
60306;SDS011;46155;52.364;6.580;2022-09-13T05:45:46;28.03;;;20.10;;
60306;SDS011;46155;52.364;6.580;2022-09-13T05:48:11;34.27;;;20.43;;
60306;SDS011;46155;52.364;6.580;2022-09-13T05:50:37;21.30;;;17.70;;
60306;SDS011;46155;52.364;6.580;2022-09-13T05:53:03;32.33;;;20.07;;
60306;SDS011;46155;52.364;6.580;2022-09-13T05:55:28;25.50;;;19.33;;
60306;SDS011;46155;52.364;6.580;2022-09-13T05:57:54;26.33;;;19.40;;
60306;SDS011;46155;52.364;6.580;2022-09-13T06:00:20;29.23;;;19.67;;
60306;SDS011;46155;52.364;6.580;2022-09-13T06:02:45;29.03;;;19.70;;
60306;SDS011;46155;52.364;6.580;2022-09-13T06:05:11;28.40;;;19.17;;
60306;SDS011;46155;52.364;6.580;2022-09-13T06:07:38;27.93;;;18.73;;
60306;SDS011;46155;52.364;6.580;2022-09-13T06:10:08;31.00;;;20.77;;
60306;SDS011;46155;52.364;6.580;2022-09-13T06:12:34;23.80;;;18.83;;
60306;SDS011;46155;52.364;6.580;2022-09-13T06:14:59;28.27;;;20.17;;
60306;SDS011;46155;52.364;6.580;2022-09-13T06:17:25;27.27;;;20.47;;
60306;SDS011;46155;52.364;6.580;2022-09-13T06:19:50;26.47;;;20.33;;
60306;SDS011;46155;52.364;6.580;2022-09-13T06:22:15;24.23;;;19.20;;
60306;SDS011;46155;52.364;6.580;2022-09-13T06:24:41;28.37;;;20.80;;
60306;SDS011;46155;52.364;6.580;2022-09-13T06:27:06;27.20;;;21.20;;
60306;SDS011;46155;52.364;6.580;2022-09-13T06:29:31;25.67;;;20.03;;
60306;SDS011;46155;52.364;6.580;2022-09-13T06:31:57;31.50;;;20.77;;
60306;SDS011;46155;52.364;6.580;2022-09-13T06:34:22;27.20;;;20.10;;
60306;SDS011;46155;52.364;6.580;2022-09-13T06:36:47;23.23;;;19.00;;
60306;SDS011;46155;52.364;6.580;2022-09-13T06:39:13;27.17;;;19.20;;
60306;SDS011;46155;52.364;6.580;2022-09-13T06:41:38;29.23;;;19.80;;
60306;SDS011;46155;52.364;6.580;2022-09-13T06:44:03;26.93;;;20.13;;
60306;SDS011;46155;52.364;6.580;2022-09-13T06:46:30;24.73;;;20.00;;
60306;SDS011;46155;52.364;6.580;2022-09-13T06:49:04;26.77;;;18.27;;
60306;SDS011;46155;52.364;6.580;2022-09-13T06:51:31;25.37;;;18.33;;
60306;SDS011;46155;52.364;6.580;2022-09-13T06:53:58;27.33;;;19.27;;
60306;SDS011;46155;52.364;6.580;2022-09-13T06:56:25;25.97;;;19.10;;
60306;SDS011;46155;52.364;6.580;2022-09-13T06:58:54;23.30;;;19.30;;
60306;SDS011;46155;52.364;6.580;2022-09-13T07:01:22;23.87;;;18.77;;
60306;SDS011;46155;52.364;6.580;2022-09-13T07:03:54;26.23;;;18.30;;
60306;SDS011;46155;52.364;6.580;2022-09-13T07:06:24;23.90;;;18.40;;
60306;SDS011;46155;52.364;6.580;2022-09-13T07:08:52;24.70;;;18.10;;
60306;SDS011;46155;52.364;6.580;2022-09-13T07:11:19;31.40;;;21.53;;
60306;SDS011;46155;52.364;6.580;2022-09-13T07:13:46;24.43;;;19.23;;
60306;SDS011;46155;52.364;6.580;2022-09-13T07:16:13;27.00;;;20.60;;
60306;SDS011;46155;52.364;6.580;2022-09-13T07:18:38;25.30;;;20.60;;
60306;SDS011;46155;52.364;6.580;2022-09-13T07:21:05;24.27;;;20.60;;
60306;SDS011;46155;52.364;6.580;2022-09-13T07:23:32;26.43;;;21.70;;
60306;SDS011;46155;52.364;6.580;2022-09-13T07:25:59;24.50;;;20.07;;
60306;SDS011;46155;52.364;6.580;2022-09-13T07:28:27;24.70;;;19.43;;
60306;SDS011;46155;52.364;6.580;2022-09-13T07:30:53;28.77;;;20.03;;
60306;SDS011;46155;52.364;6.580;2022-09-13T07:33:19;26.10;;;21.90;;
60306;SDS011;46155;52.364;6.580;2022-09-13T07:35:45;24.00;;;20.10;;
60306;SDS011;46155;52.364;6.580;2022-09-13T07:38:10;25.10;;;20.83;;
60306;SDS011;46155;52.364;6.580;2022-09-13T07:40:35;24.50;;;21.33;;
60306;SDS011;46155;52.364;6.580;2022-09-13T07:43:01;21.07;;;18.87;;
60306;SDS011;46155;52.364;6.580;2022-09-13T07:45:26;21.60;;;18.77;;
60306;SDS011;46155;52.364;6.580;2022-09-13T07:47:52;25.20;;;17.10;;
60306;SDS011;46155;52.364;6.580;2022-09-13T07:50:18;19.63;;;16.40;;
60306;SDS011;46155;52.364;6.580;2022-09-13T07:52:43;25.67;;;17.57;;
60306;SDS011;46155;52.364;6.580;2022-09-13T07:55:09;28.00;;;17.00;;
60306;SDS011;46155;52.364;6.580;2022-09-13T07:57:34;19.27;;;16.07;;
60306;SDS011;46155;52.364;6.580;2022-09-13T07:59:59;21.70;;;16.43;;
60306;SDS011;46155;52.364;6.580;2022-09-13T08:02:25;18.43;;;15.67;;
60306;SDS011;46155;52.364;6.580;2022-09-13T08:04:51;22.93;;;16.70;;
60306;SDS011;46155;52.364;6.580;2022-09-13T08:07:16;17.60;;;15.23;;
60306;SDS011;46155;52.364;6.580;2022-09-13T08:09:41;16.00;;;14.47;;
60306;SDS011;46155;52.364;6.580;2022-09-13T08:12:07;15.23;;;13.50;;
60306;SDS011;46155;52.364;6.580;2022-09-13T08:14:32;14.80;;;13.37;;
60306;SDS011;46155;52.364;6.580;2022-09-13T08:16:57;14.93;;;12.87;;
60306;SDS011;46155;52.364;6.580;2022-09-13T08:19:22;15.53;;;13.03;;
60306;SDS011;46155;52.364;6.580;2022-09-13T08:21:48;19.17;;;12.43;;
60306;SDS011;46155;52.364;6.580;2022-09-13T08:24:14;18.30;;;13.33;;
60306;SDS011;46155;52.364;6.580;2022-09-13T08:26:45;13.40;;;12.07;;
60306;SDS011;46155;52.364;6.580;2022-09-13T08:29:12;13.40;;;12.20;;
60306;SDS011;46155;52.364;6.580;2022-09-13T08:31:38;12.53;;;11.13;;
60306;SDS011;46155;52.364;6.580;2022-09-13T08:34:04;11.53;;;10.50;;
60306;SDS011;46155;52.364;6.580;2022-09-13T08:36:29;10.90;;;10.00;;
60306;SDS011;46155;52.364;6.580;2022-09-13T08:38:56;11.47;;;10.57;;
60306;SDS011;46155;52.364;6.580;2022-09-13T08:46:42;12.97;;;11.17;;
60306;SDS011;46155;52.364;6.580;2022-09-13T08:49:32;13.23;;;11.83;;
60306;SDS011;46155;52.364;6.580;2022-09-13T08:52:00;11.53;;;10.47;;
60306;SDS011;46155;52.364;6.580;2022-09-13T08:54:36;12.20;;;11.20;;
60306;SDS011;46155;52.364;6.580;2022-09-13T08:57:07;11.70;;;10.80;;
60306;SDS011;46155;52.364;6.580;2022-09-13T08:59:52;12.00;;;10.90;;
60306;SDS011;46155;52.364;6.580;2022-09-13T09:05:18;11.60;;;10.60;;
60306;SDS011;46155;52.364;6.580;2022-09-13T09:07:47;9.23;;;8.57;;
60306;SDS011;46155;52.364;6.580;2022-09-13T09:10:19;8.87;;;8.37;;
60306;SDS011;46155;52.364;6.580;2022-09-13T09:12:49;10.60;;;9.67;;
60306;SDS011;46155;52.364;6.580;2022-09-13T09:15:22;8.90;;;8.20;;
60306;SDS011;46155;52.364;6.580;2022-09-13T09:17:52;9.13;;;7.47;;
60306;SDS011;46155;52.364;6.580;2022-09-13T09:23:18;7.13;;;6.60;;
60306;SDS011;46155;52.364;6.580;2022-09-13T09:25:47;7.30;;;6.80;;
60306;SDS011;46155;52.364;6.580;2022-09-13T09:28:16;7.23;;;6.83;;
60306;SDS011;46155;52.364;6.580;2022-09-13T09:36:39;6.60;;;6.00;;
60306;SDS011;46155;52.364;6.580;2022-09-13T09:39:15;6.37;;;5.97;;
60306;SDS011;46155;52.364;6.580;2022-09-13T09:41:44;6.30;;;5.80;;
60306;SDS011;46155;52.364;6.580;2022-09-13T09:46:43;7.00;;;6.60;;
60306;SDS011;46155;52.364;6.580;2022-09-13T09:49:34;6.83;;;6.43;;
60306;SDS011;46155;52.364;6.580;2022-09-13T09:52:20;6.83;;;6.37;;
60306;SDS011;46155;52.364;6.580;2022-09-13T09:54:52;7.67;;;7.03;;
60306;SDS011;46155;52.364;6.580;2022-09-13T09:57:47;6.87;;;6.33;;
60306;SDS011;46155;52.364;6.580;2022-09-13T10:00:14;6.17;;;5.53;;
60306;SDS011;46155;52.364;6.580;2022-09-13T10:02:43;6.70;;;6.10;;
60306;SDS011;46155;52.364;6.580;2022-09-13T10:05:09;7.07;;;6.47;;
60306;SDS011;46155;52.364;6.580;2022-09-13T10:07:36;6.50;;;6.03;;
60306;SDS011;46155;52.364;6.580;2022-09-13T10:10:24;6.70;;;6.20;;
60306;SDS011;46155;52.364;6.580;2022-09-13T10:12:51;10.27;;;6.47;;
60306;SDS011;46155;52.364;6.580;2022-09-13T10:15:19;6.37;;;5.93;;
60306;SDS011;46155;52.364;6.580;2022-09-13T10:23:30;7.33;;;6.10;;
60306;SDS011;46155;52.364;6.580;2022-09-13T10:26:01;6.97;;;6.30;;
60306;SDS011;46155;52.364;6.580;2022-09-13T10:28:31;6.17;;;5.87;;
60306;SDS011;46155;52.364;6.580;2022-09-13T10:31:04;5.10;;;4.80;;
60306;SDS011;46155;52.364;6.580;2022-09-13T10:33:35;6.53;;;5.23;;
60306;SDS011;46155;52.364;6.580;2022-09-13T10:38:40;6.27;;;5.73;;
60306;SDS011;46155;52.364;6.580;2022-09-13T10:41:07;5.50;;;5.20;;
60306;SDS011;46155;52.364;6.580;2022-09-13T10:43:35;6.10;;;5.50;;
60306;SDS011;46155;52.364;6.580;2022-09-13T10:46:02;5.80;;;5.50;;
60306;SDS011;46155;52.364;6.580;2022-09-13T10:48:30;6.27;;;5.60;;
60306;SDS011;46155;52.364;6.580;2022-09-13T10:51:18;6.00;;;5.50;;
60306;SDS011;46155;52.364;6.580;2022-09-13T10:54:09;4.87;;;4.50;;
60306;SDS011;46155;52.364;6.580;2022-09-13T10:56:39;5.30;;;5.03;;
60306;SDS011;46155;52.364;6.580;2022-09-13T11:05:03;5.13;;;4.83;;
60306;SDS011;46155;52.364;6.580;2022-09-13T11:10:57;5.57;;;5.07;;
60306;SDS011;46155;52.364;6.580;2022-09-13T11:18:53;6.03;;;5.57;;
60306;SDS011;46155;52.364;6.580;2022-09-13T11:21:23;6.13;;;5.73;;
60306;SDS011;46155;52.364;6.580;2022-09-13T11:24:16;6.00;;;5.60;;
60306;SDS011;46155;52.364;6.580;2022-09-13T11:27:03;5.53;;;5.00;;
60306;SDS011;46155;52.364;6.580;2022-09-13T11:41:00;5.30;;;5.10;;
60306;SDS011;46155;52.364;6.580;2022-09-13T11:43:42;5.03;;;4.83;;
60306;SDS011;46155;52.364;6.580;2022-09-13T11:46:33;5.57;;;5.27;;
60306;SDS011;46155;52.364;6.580;2022-09-13T11:51:41;5.47;;;5.17;;
60306;SDS011;46155;52.364;6.580;2022-09-13T11:54:46;5.50;;;5.10;;
60306;SDS011;46155;52.364;6.580;2022-09-13T11:57:25;7.37;;;4.80;;
60306;SDS011;46155;52.364;6.580;2022-09-13T11:59:59;4.93;;;4.63;;
60306;SDS011;46155;52.364;6.580;2022-09-13T12:05:04;9.63;;;5.37;;
60306;SDS011;46155;52.364;6.580;2022-09-13T12:07:49;9.10;;;5.50;;
60306;SDS011;46155;52.364;6.580;2022-09-13T12:12:48;5.40;;;5.10;;
60306;SDS011;46155;52.364;6.580;2022-09-13T12:15:17;5.57;;;5.17;;
60306;SDS011;46155;52.364;6.580;2022-09-13T12:18:01;5.47;;;4.97;;
60306;SDS011;46155;52.364;6.580;2022-09-13T12:20:34;5.47;;;5.00;;
60306;SDS011;46155;52.364;6.580;2022-09-13T12:23:06;5.30;;;5.10;;
60306;SDS011;46155;52.364;6.580;2022-09-13T12:25:41;5.83;;;5.43;;
60306;SDS011;46155;52.364;6.580;2022-09-13T12:28:16;5.23;;;4.93;;
60306;SDS011;46155;52.364;6.580;2022-09-13T12:31:32;6.53;;;4.63;;
60306;SDS011;46155;52.364;6.580;2022-09-13T12:33:40;10.23;;;5.10;;
60306;SDS011;46155;52.364;6.580;2022-09-13T12:50:21;5.67;;;5.27;;
60306;SDS011;46155;52.364;6.580;2022-09-13T12:53:01;5.33;;;5.03;;
60306;SDS011;46155;52.364;6.580;2022-09-13T12:58:37;5.10;;;4.80;;
60306;SDS011;46155;52.364;6.580;2022-09-13T13:01:18;10.70;;;5.17;;
60306;SDS011;46155;52.364;6.580;2022-09-13T13:06:25;4.80;;;4.60;;
60306;SDS011;46155;52.364;6.580;2022-09-13T13:08:56;5.03;;;4.77;;
60306;SDS011;46155;52.364;6.580;2022-09-13T13:11:26;5.27;;;4.77;;
60306;SDS011;46155;52.364;6.580;2022-09-13T13:14:00;4.80;;;4.40;;
60306;SDS011;46155;52.364;6.580;2022-09-13T13:16:36;5.10;;;4.80;;
60306;SDS011;46155;52.364;6.580;2022-09-13T13:21:53;4.70;;;4.50;;
60306;SDS011;46155;52.364;6.580;2022-09-13T13:26:45;4.57;;;4.27;;
60306;SDS011;46155;52.364;6.580;2022-09-13T13:29:16;4.93;;;4.53;;
60306;SDS011;46155;52.364;6.580;2022-09-13T13:31:43;4.80;;;4.60;;
60306;SDS011;46155;52.364;6.580;2022-09-13T13:39:42;4.80;;;4.53;;
60306;SDS011;46155;52.364;6.580;2022-09-13T13:42:25;5.20;;;4.97;;
60306;SDS011;46155;52.364;6.580;2022-09-13T13:49:50;5.00;;;4.77;;
60306;SDS011;46155;52.364;6.580;2022-09-13T13:57:33;5.67;;;5.17;;
60306;SDS011;46155;52.364;6.580;2022-09-13T14:11:09;4.30;;;4.10;;
60306;SDS011;46155;52.364;6.580;2022-09-13T14:16:24;5.73;;;5.30;;
60306;SDS011;46155;52.364;6.580;2022-09-13T14:21:39;5.13;;;4.67;;
60306;SDS011;46155;52.364;6.580;2022-09-13T14:24:14;5.30;;;5.00;;
60306;SDS011;46155;52.364;6.580;2022-09-13T14:26:45;4.90;;;4.63;;
60306;SDS011;46155;52.364;6.580;2022-09-13T14:29:14;11.10;;;5.43;;
60306;SDS011;46155;52.364;6.580;2022-09-13T14:31:44;4.50;;;4.30;;
60306;SDS011;46155;52.364;6.580;2022-09-13T14:34:23;4.90;;;4.60;;
60306;SDS011;46155;52.364;6.580;2022-09-13T14:36:54;6.93;;;4.43;;
60306;SDS011;46155;52.364;6.580;2022-09-13T14:39:22;4.57;;;4.20;;
60306;SDS011;46155;52.364;6.580;2022-09-13T14:41:48;4.43;;;4.13;;
60306;SDS011;46155;52.364;6.580;2022-09-13T14:44:24;6.17;;;4.47;;
60306;SDS011;46155;52.364;6.580;2022-09-13T14:47:01;4.73;;;4.20;;
60306;SDS011;46155;52.364;6.580;2022-09-13T14:49:38;4.90;;;4.60;;
60306;SDS011;46155;52.364;6.580;2022-09-13T14:52:08;5.93;;;4.43;;
60306;SDS011;46155;52.364;6.580;2022-09-13T14:54:45;4.70;;;4.07;;
60306;SDS011;46155;52.364;6.580;2022-09-13T15:00:05;4.77;;;4.37;;
60306;SDS011;46155;52.364;6.580;2022-09-13T15:02:40;4.87;;;4.57;;
60306;SDS011;46155;52.364;6.580;2022-09-13T15:05:12;5.37;;;5.07;;
60306;SDS011;46155;52.364;6.580;2022-09-13T15:07:40;5.30;;;4.90;;
60306;SDS011;46155;52.364;6.580;2022-09-13T15:17:59;4.60;;;4.30;;
60306;SDS011;46155;52.364;6.580;2022-09-13T15:20:29;5.27;;;4.87;;
60306;SDS011;46155;52.364;6.580;2022-09-13T15:23:15;4.33;;;3.97;;
60306;SDS011;46155;52.364;6.580;2022-09-13T15:25:46;4.77;;;4.43;;
60306;SDS011;46155;52.364;6.580;2022-09-13T15:28:21;4.67;;;4.40;;
60306;SDS011;46155;52.364;6.580;2022-09-13T15:30:49;5.97;;;4.80;;
60306;SDS011;46155;52.364;6.580;2022-09-13T15:35:48;4.93;;;4.53;;
60306;SDS011;46155;52.364;6.580;2022-09-13T15:38:27;4.37;;;4.07;;
60306;SDS011;46155;52.364;6.580;2022-09-13T15:40:57;4.57;;;4.30;;
60306;SDS011;46155;52.364;6.580;2022-09-13T15:43:26;6.87;;;4.47;;
60306;SDS011;46155;52.364;6.580;2022-09-13T15:45:51;5.67;;;4.30;;
60306;SDS011;46155;52.364;6.580;2022-09-13T15:48:30;5.00;;;4.37;;
60306;SDS011;46155;52.364;6.580;2022-09-13T15:51:10;5.07;;;4.60;;
60306;SDS011;46155;52.364;6.580;2022-09-13T15:53:37;5.47;;;4.93;;
60306;SDS011;46155;52.364;6.580;2022-09-13T15:56:04;5.03;;;4.73;;
60306;SDS011;46155;52.364;6.580;2022-09-13T15:58:31;5.70;;;3.73;;
60306;SDS011;46155;52.364;6.580;2022-09-13T16:00:57;5.37;;;4.47;;
60306;SDS011;46155;52.364;6.580;2022-09-13T16:03:23;5.00;;;4.57;;
60306;SDS011;46155;52.364;6.580;2022-09-13T16:05:48;8.13;;;4.63;;
60306;SDS011;46155;52.364;6.580;2022-09-13T16:08:14;9.17;;;4.70;;
60306;SDS011;46155;52.364;6.580;2022-09-13T16:10:39;5.67;;;5.17;;
60306;SDS011;46155;52.364;6.580;2022-09-13T16:13:04;5.37;;;4.80;;
60306;SDS011;46155;52.364;6.580;2022-09-13T16:15:29;5.10;;;4.70;;
60306;SDS011;46155;52.364;6.580;2022-09-13T16:17:55;4.70;;;4.30;;
60306;SDS011;46155;52.364;6.580;2022-09-13T16:20:20;5.13;;;4.73;;
60306;SDS011;46155;52.364;6.580;2022-09-13T16:22:46;5.83;;;4.87;;
60306;SDS011;46155;52.364;6.580;2022-09-13T16:25:12;4.97;;;4.57;;
60306;SDS011;46155;52.364;6.580;2022-09-13T16:27:39;4.63;;;4.33;;
60306;SDS011;46155;52.364;6.580;2022-09-13T16:30:05;5.50;;;4.43;;
60306;SDS011;46155;52.364;6.580;2022-09-13T16:32:32;4.27;;;4.03;;
60306;SDS011;46155;52.364;6.580;2022-09-13T16:34:57;4.93;;;4.50;;
60306;SDS011;46155;52.364;6.580;2022-09-13T16:37:22;5.23;;;4.90;;
60306;SDS011;46155;52.364;6.580;2022-09-13T16:39:48;5.87;;;4.20;;
60306;SDS011;46155;52.364;6.580;2022-09-13T16:42:13;5.00;;;4.80;;
60306;SDS011;46155;52.364;6.580;2022-09-13T16:44:41;7.53;;;5.10;;
60306;SDS011;46155;52.364;6.580;2022-09-13T16:47:06;5.60;;;4.90;;
60306;SDS011;46155;52.364;6.580;2022-09-13T16:49:32;5.70;;;5.10;;
60306;SDS011;46155;52.364;6.580;2022-09-13T16:51:57;4.90;;;4.40;;
60306;SDS011;46155;52.364;6.580;2022-09-13T16:54:24;4.80;;;4.47;;
60306;SDS011;46155;52.364;6.580;2022-09-13T16:56:50;5.70;;;5.27;;
60306;SDS011;46155;52.364;6.580;2022-09-13T16:59:16;4.70;;;4.30;;
60306;SDS011;46155;52.364;6.580;2022-09-13T17:01:41;5.60;;;4.80;;
60306;SDS011;46155;52.364;6.580;2022-09-13T17:04:06;12.53;;;5.20;;
60306;SDS011;46155;52.364;6.580;2022-09-13T17:06:34;8.20;;;4.50;;
60306;SDS011;46155;52.364;6.580;2022-09-13T17:09:00;6.80;;;4.87;;
60306;SDS011;46155;52.364;6.580;2022-09-13T17:11:28;6.93;;;4.70;;
60306;SDS011;46155;52.364;6.580;2022-09-13T17:13:55;6.27;;;5.67;;
60306;SDS011;46155;52.364;6.580;2022-09-13T17:17:06;5.37;;;5.00;;
60306;SDS011;46155;52.364;6.580;2022-09-13T17:19:12;5.27;;;4.53;;
60306;SDS011;46155;52.364;6.580;2022-09-13T17:21:41;5.60;;;5.13;;
60306;SDS011;46155;52.364;6.580;2022-09-13T17:24:06;5.97;;;5.47;;
60306;SDS011;46155;52.364;6.580;2022-09-13T17:26:31;4.90;;;4.70;;
60306;SDS011;46155;52.364;6.580;2022-09-13T17:28:57;11.00;;;7.00;;
60306;SDS011;46155;52.364;6.580;2022-09-13T17:31:23;7.53;;;4.90;;
60306;SDS011;46155;52.364;6.580;2022-09-13T17:33:48;5.97;;;5.47;;
60306;SDS011;46155;52.364;6.580;2022-09-13T17:36:13;5.60;;;5.30;;
60306;SDS011;46155;52.364;6.580;2022-09-13T17:38:39;6.30;;;5.70;;
60306;SDS011;46155;52.364;6.580;2022-09-13T17:41:06;5.60;;;5.10;;
60306;SDS011;46155;52.364;6.580;2022-09-13T17:43:34;7.20;;;5.50;;
60306;SDS011;46155;52.364;6.580;2022-09-13T17:46:04;5.70;;;5.20;;
60306;SDS011;46155;52.364;6.580;2022-09-13T17:48:30;7.27;;;6.33;;
60306;SDS011;46155;52.364;6.580;2022-09-13T17:51:00;6.47;;;5.87;;
60306;SDS011;46155;52.364;6.580;2022-09-13T17:53:29;7.87;;;5.97;;
60306;SDS011;46155;52.364;6.580;2022-09-13T17:55:54;9.67;;;5.90;;
60306;SDS011;46155;52.364;6.580;2022-09-13T17:58:20;13.50;;;6.07;;
60306;SDS011;46155;52.364;6.580;2022-09-13T18:00:48;9.57;;;5.87;;
60306;SDS011;46155;52.364;6.580;2022-09-13T18:03:13;7.20;;;5.63;;
60306;SDS011;46155;52.364;6.580;2022-09-13T18:05:39;6.80;;;6.30;;
60306;SDS011;46155;52.364;6.580;2022-09-13T18:08:05;10.67;;;6.50;;
60306;SDS011;46155;52.364;6.580;2022-09-13T18:10:30;9.13;;;6.03;;
60306;SDS011;46155;52.364;6.580;2022-09-13T18:12:56;6.80;;;6.17;;
60306;SDS011;46155;52.364;6.580;2022-09-13T18:15:21;8.23;;;5.97;;
60306;SDS011;46155;52.364;6.580;2022-09-13T18:17:46;6.63;;;6.13;;
60306;SDS011;46155;52.364;6.580;2022-09-13T18:20:11;6.63;;;5.60;;
60306;SDS011;46155;52.364;6.580;2022-09-13T18:22:37;9.53;;;6.60;;
60306;SDS011;46155;52.364;6.580;2022-09-13T18:25:03;6.87;;;6.37;;
60306;SDS011;46155;52.364;6.580;2022-09-13T18:27:29;11.07;;;6.03;;
60306;SDS011;46155;52.364;6.580;2022-09-13T18:29:54;7.07;;;6.33;;
60306;SDS011;46155;52.364;6.580;2022-09-13T18:32:19;6.53;;;6.00;;
60306;SDS011;46155;52.364;6.580;2022-09-13T18:34:44;6.40;;;5.83;;
60306;SDS011;46155;52.364;6.580;2022-09-13T18:37:10;10.43;;;6.73;;
60306;SDS011;46155;52.364;6.580;2022-09-13T18:39:35;6.17;;;5.87;;
60306;SDS011;46155;52.364;6.580;2022-09-13T18:42:01;8.37;;;6.67;;
60306;SDS011;46155;52.364;6.580;2022-09-13T18:44:26;17.70;;;6.03;;
60306;SDS011;46155;52.364;6.580;2022-09-13T18:46:54;6.50;;;5.87;;
60306;SDS011;46155;52.364;6.580;2022-09-13T18:49:20;7.73;;;7.00;;
60306;SDS011;46155;52.364;6.580;2022-09-13T18:51:46;8.37;;;6.90;;
60306;SDS011;46155;52.364;6.580;2022-09-13T18:54:14;11.77;;;6.77;;
60306;SDS011;46155;52.364;6.580;2022-09-13T18:56:42;8.87;;;7.93;;
60306;SDS011;46155;52.364;6.580;2022-09-13T18:59:08;8.40;;;7.73;;
60306;SDS011;46155;52.364;6.580;2022-09-13T19:01:38;12.20;;;7.23;;
60306;SDS011;46155;52.364;6.580;2022-09-13T19:04:07;6.90;;;6.50;;
60306;SDS011;46155;52.364;6.580;2022-09-13T19:06:39;10.17;;;7.37;;
60306;SDS011;46155;52.364;6.580;2022-09-13T19:09:07;11.53;;;7.30;;
60306;SDS011;46155;52.364;6.580;2022-09-13T19:11:35;7.07;;;6.63;;
60306;SDS011;46155;52.364;6.580;2022-09-13T19:14:03;7.60;;;6.90;;
60306;SDS011;46155;52.364;6.580;2022-09-13T19:16:29;9.40;;;6.63;;
60306;SDS011;46155;52.364;6.580;2022-09-13T19:18:55;7.30;;;6.77;;
60306;SDS011;46155;52.364;6.580;2022-09-13T19:21:28;8.23;;;7.47;;
60306;SDS011;46155;52.364;6.580;2022-09-13T19:23:55;14.37;;;7.50;;
60306;SDS011;46155;52.364;6.580;2022-09-13T19:26:25;8.03;;;7.37;;
60306;SDS011;46155;52.364;6.580;2022-09-13T19:28:54;7.70;;;7.10;;
60306;SDS011;46155;52.364;6.580;2022-09-13T19:31:24;8.27;;;7.43;;
60306;SDS011;46155;52.364;6.580;2022-09-13T19:33:51;7.93;;;7.43;;
60306;SDS011;46155;52.364;6.580;2022-09-13T19:36:19;8.60;;;7.53;;
60306;SDS011;46155;52.364;6.580;2022-09-13T19:38:47;9.00;;;7.60;;
60306;SDS011;46155;52.364;6.580;2022-09-13T19:41:14;10.07;;;8.83;;
60306;SDS011;46155;52.364;6.580;2022-09-13T19:43:42;12.23;;;8.27;;
60306;SDS011;46155;52.364;6.580;2022-09-13T19:46:10;9.45;;;8.73;;
60306;SDS011;46155;52.364;6.580;2022-09-13T19:48:41;10.00;;;8.80;;
60306;SDS011;46155;52.364;6.580;2022-09-13T19:51:08;11.07;;;8.87;;
60306;SDS011;46155;52.364;6.580;2022-09-13T19:53:37;9.13;;;8.50;;
60306;SDS011;46155;52.364;6.580;2022-09-13T19:56:03;9.47;;;8.87;;
60306;SDS011;46155;52.364;6.580;2022-09-13T19:58:29;10.00;;;9.10;;
60306;SDS011;46155;52.364;6.580;2022-09-13T20:01:02;9.20;;;8.40;;
60306;SDS011;46155;52.364;6.580;2022-09-13T20:03:32;16.57;;;9.30;;
60306;SDS011;46155;52.364;6.580;2022-09-13T20:05:58;8.83;;;7.90;;
60306;SDS011;46155;52.364;6.580;2022-09-13T20:08:25;9.73;;;9.13;;
60306;SDS011;46155;52.364;6.580;2022-09-13T20:10:50;9.13;;;8.40;;
60306;SDS011;46155;52.364;6.580;2022-09-13T20:13:15;9.87;;;8.97;;
60306;SDS011;46155;52.364;6.580;2022-09-13T20:15:41;10.37;;;9.47;;
60306;SDS011;46155;52.364;6.580;2022-09-13T20:18:06;9.87;;;9.17;;
60306;SDS011;46155;52.364;6.580;2022-09-13T20:20:37;9.90;;;9.27;;